La Valley, Colorado
Current Conditions -  °F | °C
As of 2:11 AM on Friday 19 Dec 2014 (Local Time) from KVTP Reporting Station
Overcast Overcast  
Wind Chill:   Ceiling: 100
Heat Index: 16°   Visibility: 10mi
Dew Point: 12°   Wind: 7mph
Humidity: 86%   Direction: 190°S
Pressure: 30.06"   Gusts: NA
Location:  37.1568°N, 105.289°W
Report Text: KVTP 190911Z AUTO 19006KT 10SM OVC001 M09/M11 A3006 RMK AO2
Loading
Personal Weather Stations






























Interactive Weather Map New forecast layout! Learn more

10-Day Weather Forecast

Advertisements
Track Severe Weather on mobile